Time;durP1;ratioP1;P1;durP2;ratioP2;P2;SDS_P1;SDS_P2;PMS_P1;PMS_P2;Temp;Humidity;BMP_temperature;BMP_pressure;BME280_temperature;BME280_humidity;BME280_pressure;Samples;Min_cycle;Max_cycle;Signal;HPM_P1;HPM_P2
2021/01/20 00:02:07;;;;;;;57.83;29.10;;;-9.90;54.80;;;;;;5063462;28;20029;-63
2021/01/20 00:04:33;;;;;;;55.58;27.33;;;-9.90;54.80;;;;;;5073412;28;20025;-63
2021/01/20 00:06:59;;;;;;;63.25;32.30;;;-9.90;54.80;;;;;;5073826;28;20040;-63
2021/01/20 00:09:26;;;;;;;60.88;30.88;;;-9.90;54.80;;;;;;5072787;28;20103;-63
2021/01/20 00:11:52;;;;;;;66.07;34.78;;;-10.00;54.80;;;;;;5073965;28;20081;-63
2021/01/20 00:14:18;;;;;;;55.15;26.48;;;-10.00;55.50;;;;;;5072937;28;20107;-63
2021/01/20 00:16:45;;;;;;;63.05;31.83;;;-10.00;55.00;;;;;;5072605;28;20028;-63
2021/01/20 00:19:11;;;;;;;69.03;37.45;;;-10.00;54.90;;;;;;5073282;28;20033;-63
2021/01/20 00:21:38;;;;;;;53.25;27.30;;;-10.00;54.90;;;;;;5073813;28;20152;-63
2021/01/20 00:24:05;;;;;;;73.10;35.75;;;-10.00;54.80;;;;;;5073873;28;20025;-63
2021/01/20 00:26:31;;;;;;;79.30;37.73;;;-10.00;54.70;;;;;;5073191;28;20036;-63
2021/01/20 00:28:56;;;;;;;81.95;41.58;;;-10.00;54.70;;;;;;5073454;28;20029;-63
2021/01/20 00:31:22;;;;;;;80.85;42.75;;;-10.10;54.60;;;;;;5072601;28;20040;-63
2021/01/20 00:33:48;;;;;;;89.60;43.20;;;-10.10;54.70;;;;;;5073626;28;20455;-62
2021/01/20 00:36:14;;;;;;;61.97;33.45;;;-10.10;54.70;;;;;;5073456;28;20066;-63
2021/01/20 00:38:39;;;;;;;61.15;31.70;;;-10.10;54.70;;;;;;5072952;28;20414;-63
2021/01/20 00:41:05;;;;;;;84.20;41.88;;;-10.10;54.60;;;;;;5073567;28;20013;-63
2021/01/20 00:43:31;;;;;;;79.22;40.08;;;-10.10;54.60;;;;;;5073018;28;20074;-63
2021/01/20 00:45:57;;;;;;;81.53;40.35;;;-10.10;54.70;;;;;;5073005;28;20031;-63
2021/01/20 00:48:23;;;;;;;67.50;37.15;;;-10.10;54.70;;;;;;5072299;28;20025;-63
2021/01/20 00:50:53;;;;;;;54.80;29.13;;;-10.10;54.80;;;;;;5073527;28;20525;-63
2021/01/20 00:53:19;;;;;;;65.20;33.25;;;-10.10;54.80;;;;;;5073534;28;20457;-63
2021/01/20 00:55:45;;;;;;;59.63;31.60;;;-10.10;54.80;;;;;;5073494;28;20024;-63
2021/01/20 00:58:10;;;;;;;45.25;24.80;;;-10.20;54.60;;;;;;5071790;28;20032;-63
2021/01/20 01:00:36;;;;;;;59.70;30.65;;;-10.20;54.50;;;;;;5072460;28;20367;-63
2021/01/20 01:03:02;;;;;;;70.93;34.20;;;-10.20;54.50;;;;;;5073302;28;20095;-63
2021/01/20 01:05:28;;;;;;;66.35;32.88;;;-10.20;54.60;;;;;;5073140;28;20024;-63
2021/01/20 01:07:53;;;;;;;50.30;26.83;;;-10.20;54.60;;;;;;5071891;28;20073;-63
2021/01/20 01:10:19;;;;;;;62.35;29.33;;;-10.20;54.60;;;;;;5073279;28;20032;-63
2021/01/20 01:12:45;;;;;;;64.93;30.85;;;-10.20;54.70;;;;;;5073488;28;20024;-63
2021/01/20 01:15:11;;;;;;;66.43;32.72;;;-10.20;54.70;;;;;;5072283;28;20035;-63
2021/01/20 01:17:36;;;;;;;54.97;27.75;;;-10.30;54.70;;;;;;5073104;28;20048;-63
2021/01/20 01:20:03;;;;;;;57.55;31.42;;;-10.20;55.00;;;;;;5073205;28;20023;-63
2021/01/20 01:22:29;;;;;;;40.30;23.83;;;-10.30;54.90;;;;;;5072804;28;20464;-63
2021/01/20 01:24:54;;;;;;;47.72;27.02;;;-10.20;54.90;;;;;;5073157;28;20028;-62
2021/01/20 01:27:20;;;;;;;58.65;29.23;;;-10.20;54.70;;;;;;5072770;28;20048;-63
2021/01/20 01:29:46;;;;;;;67.10;32.47;;;-10.20;54.80;;;;;;5071719;28;20051;-63
2021/01/20 01:32:11;;;;;;;55.72;27.98;;;-10.20;54.80;;;;;;5072245;28;20028;-63
2021/01/20 01:34:37;;;;;;;39.47;24.40;;;-10.20;54.80;;;;;;5071453;28;20405;-63
2021/01/20 01:37:03;;;;;;;49.45;24.60;;;-10.20;54.80;;;;;;5071675;28;20032;-63
2021/01/20 01:39:29;;;;;;;54.28;29.90;;;-10.20;54.80;;;;;;5075911;28;20024;-63
2021/01/20 01:41:54;;;;;;;63.38;32.15;;;-10.20;54.90;;;;;;5076701;28;20465;-62
2021/01/20 01:44:20;;;;;;;56.08;28.63;;;-10.20;54.90;;;;;;5074803;28;20055;-62
2021/01/20 01:46:46;;;;;;;60.63;30.23;;;-10.20;54.90;;;;;;5076893;28;20028;-62
2021/01/20 01:49:12;;;;;;;63.05;28.85;;;-10.20;54.80;;;;;;5076721;28;20375;-63
2021/01/20 01:51:39;;;;;;;60.95;30.63;;;-10.20;54.80;;;;;;5076648;28;20032;-63
2021/01/20 01:54:05;;;;;;;68.15;30.83;;;-10.20;54.70;;;;;;5076657;28;20077;-63
2021/01/20 01:56:31;;;;;;;48.80;25.42;;;-10.20;54.60;;;;;;5076428;28;20098;-63
2021/01/20 01:58:58;;;;;;;72.32;33.90;;;-10.20;54.60;;;;;;5076461;28;20020;-63
2021/01/20 02:01:23;;;;;;;57.08;29.88;;;-10.20;54.50;;;;;;5073391;28;20396;-63
2021/01/20 02:03:50;;;;;;;61.85;26.92;;;-10.20;54.60;;;;;;5072044;28;20021;-63
2021/01/20 02:06:16;;;;;;;56.05;27.10;;;-10.20;54.70;;;;;;5076298;28;20511;-63
2021/01/20 02:08:44;;;;;;;58.53;27.55;;;-10.30;54.60;;;;;;5072519;28;20112;-63
2021/01/20 02:11:44;;;;;;;56.63;27.60;;;-10.20;54.70;;;;;;5076436;28;20024;-63
2021/01/20 02:14:24;;;;;;;54.50;25.35;;;-10.20;54.70;;;;;;5074742;28;20021;-63
2021/01/20 02:17:02;;;;;;;45.92;22.45;;;-10.20;54.70;;;;;;5073630;28;20036;-63
2021/01/20 02:19:48;;;;;;;48.03;23.55;;;-10.20;54.50;;;;;;5074229;28;20376;-63
2021/01/20 02:22:42;;;;;;;49.85;24.25;;;-10.30;54.40;;;;;;5074948;28;20020;-63
2021/01/20 02:25:13;;;;;;;56.40;27.67;;;-10.40;54.40;;;;;;5072509;28;20457;-63
2021/01/20 02:28:08;;;;;;;58.67;30.02;;;-10.40;54.50;;;;;;5075971;28;20016;-63
2021/01/20 02:30:37;;;;;;;71.32;31.42;;;-10.40;54.50;;;;;;5073949;28;20024;-63
2021/01/20 02:33:04;;;;;;;60.70;28.42;;;-10.50;54.50;;;;;;5072692;28;20531;-63
2021/01/20 02:35:32;;;;;;;43.80;22.83;;;-10.50;55.00;;;;;;5075732;28;20040;-63
2021/01/20 02:38:01;;;;;;;48.65;24.50;;;-10.50;54.50;;;;;;5075880;28;20013;-63
2021/01/20 02:40:26;;;;;;;59.47;28.47;;;-10.50;54.40;;;;;;5075776;28;20104;-63
2021/01/20 02:42:52;;;;;;;48.03;25.13;;;-10.50;54.50;;;;;;5074432;28;20471;-63
2021/01/20 02:45:19;;;;;;;45.67;25.92;;;-10.50;54.50;;;;;;5074632;28;20368;-63
2021/01/20 02:47:46;;;;;;;46.40;25.53;;;-10.50;54.60;;;;;;5075703;28;20024;-63
2021/01/20 02:50:12;;;;;;;41.50;24.05;;;-10.50;54.60;;;;;;5075132;28;20158;-62
2021/01/20 02:52:57;;;;;;;62.55;29.13;;;-10.50;54.50;;;;;;5074496;28;20472;-62
2021/01/20 02:55:26;;;;;;;50.45;25.88;;;-10.50;54.60;;;;;;5072857;28;20361;-63
2021/01/20 02:58:13;;;;;;;35.40;21.75;;;-10.50;54.70;;;;;;5075359;28;20081;-62
2021/01/20 03:00:41;;;;;;;42.17;22.47;;;-10.40;54.70;;;;;;5074024;28;20059;-63
2021/01/20 03:03:09;;;;;;;51.97;25.05;;;-10.40;54.70;;;;;;5075179;28;20380;-63
2021/01/20 03:05:37;;;;;;;49.25;26.15;;;-10.40;54.60;;;;;;5075236;28;20392;-63
2021/01/20 03:08:04;;;;;;;62.65;27.90;;;-10.50;54.50;;;;;;5071991;28;20037;-62
2021/01/20 03:10:29;;;;;;;55.50;26.20;;;-10.50;54.60;;;;;;5075294;28;20024;-63
2021/01/20 03:12:56;;;;;;;54.78;27.45;;;-10.50;54.70;;;;;;5075057;28;20047;-63
2021/01/20 03:15:25;;;;;;;62.53;29.58;;;-10.50;54.70;;;;;;5073833;28;20035;-63
2021/01/20 03:17:50;;;;;;;46.17;24.23;;;-10.50;54.80;;;;;;5075000;28;20029;-63
2021/01/20 03:20:16;;;;;;;45.08;22.27;;;-10.50;54.70;;;;;;5075168;28;20028;-63
2021/01/20 03:22:42;;;;;;;51.10;25.75;;;-10.60;54.70;;;;;;5073631;28;20012;-63
2021/01/20 03:25:09;;;;;;;58.28;25.98;;;-10.60;54.80;;;;;;5075052;28;20028;-63
2021/01/20 03:27:35;;;;;;;61.15;29.45;;;-10.60;54.80;;;;;;5074907;28;20024;-63
2021/01/20 03:30:00;;;;;;;66.57;31.25;;;-10.50;54.80;;;;;;5073741;28;20033;-62
2021/01/20 03:32:26;;;;;;;39.07;21.43;;;-10.50;54.80;;;;;;5074693;28;20490;-63
2021/01/20 03:34:52;;;;;;;38.25;20.27;;;-10.50;54.80;;;;;;5074672;28;20099;-62
2021/01/20 03:37:17;;;;;;;37.38;22.13;;;-10.40;54.70;;;;;;5074584;28;20475;-62
2021/01/20 03:39:43;;;;;;;47.20;24.03;;;-10.40;54.60;;;;;;5074722;28;20344;-62
2021/01/20 03:42:09;;;;;;;42.22;23.70;;;-10.40;54.70;;;;;;5074461;28;20009;-62
2021/01/20 03:44:35;;;;;;;49.72;26.27;;;-10.40;54.70;;;;;;5073563;28;20078;-62
2021/01/20 03:47:00;;;;;;;53.38;27.83;;;-10.40;54.70;;;;;;5071359;28;20036;-63
2021/01/20 03:49:26;;;;;;;58.67;28.83;;;-10.40;54.70;;;;;;5072111;28;20021;-63
2021/01/20 03:51:52;;;;;;;40.03;23.27;;;-10.40;54.70;;;;;;5072149;28;20356;-63
2021/01/20 03:54:18;;;;;;;62.20;28.73;;;-10.40;54.70;;;;;;5072715;28;20035;-63
2021/01/20 03:56:44;;;;;;;64.13;30.73;;;-10.40;54.90;;;;;;5073231;28;20525;-63
2021/01/20 03:59:09;;;;;;;57.65;28.27;;;-10.40;54.90;;;;;;5073732;28;20028;-63
2021/01/20 04:01:35;;;;;;;58.30;28.25;;;-10.40;54.80;;;;;;5071907;28;20020;-63
2021/01/20 04:04:01;;;;;;;56.67;29.30;;;-10.40;54.80;;;;;;5070862;28;20024;-63
2021/01/20 04:06:27;;;;;;;60.50;29.40;;;-10.40;54.80;;;;;;5073533;28;20068;-63
2021/01/20 04:08:52;;;;;;;52.90;27.05;;;-10.40;54.80;;;;;;5073807;28;20020;-62
2021/01/20 04:11:21;;;;;;;58.38;30.17;;;-10.40;54.80;;;;;;5072970;28;20403;-62
2021/01/20 04:13:48;;;;;;;61.13;29.73;;;-10.40;54.90;;;;;;5069791;28;20068;-62
2021/01/20 04:16:14;;;;;;;50.45;27.58;;;-10.40;54.80;;;;;;5072639;28;20074;-62
2021/01/20 04:18:40;;;;;;;54.83;28.45;;;-10.40;54.70;;;;;;5072652;28;20482;-62
2021/01/20 04:21:06;;;;;;;50.75;26.02;;;-10.40;54.60;;;;;;5073368;28;20095;-63
2021/01/20 04:23:36;;;;;;;42.30;23.43;;;-10.40;54.60;;;;;;5072856;28;20404;-63
2021/01/20 04:26:05;;;;;;;54.90;31.58;;;-10.50;54.60;;;;;;5072397;28;20499;-63
2021/01/20 04:28:31;;;;;;;70.87;33.73;;;-10.50;54.60;;;;;;5073235;28;20021;-62
2021/01/20 04:30:58;;;;;;;62.75;29.65;;;-10.40;54.70;;;;;;5073158;28;20081;-63
2021/01/20 04:33:24;;;;;;;58.67;30.70;;;-10.40;54.80;;;;;;5072893;28;20028;-62
2021/01/20 04:35:50;;;;;;;65.82;30.98;;;-10.40;54.80;;;;;;5073061;28;20208;-63
2021/01/20 04:38:15;;;;;;;65.55;33.92;;;-10.40;54.80;;;;;;5073513;28;20025;-63
2021/01/20 04:40:41;;;;;;;46.85;27.42;;;-10.30;55.00;;;;;;5069243;28;20021;-63
2021/01/20 04:43:07;;;;;;;56.63;28.60;;;-10.30;54.80;;;;;;5073069;28;20054;-62
2021/01/20 04:45:33;;;;;;;56.33;32.20;;;-10.30;54.70;;;;;;5073238;28;20012;-63
2021/01/20 04:48:00;;;;;;;63.30;34.05;;;-10.30;54.70;;;;;;5073446;28;20024;-62
2021/01/20 04:50:29;;;;;;;71.90;36.87;;;-10.30;54.70;;;;;;5073755;28;20074;-62
2021/01/20 04:53:00;;;;;;;53.03;30.38;;;-10.30;54.80;;;;;;5072810;28;20103;-63
2021/01/20 04:55:27;;;;;;;55.28;28.92;;;-10.30;54.70;;;;;;5069757;28;20451;-63
2021/01/20 04:57:53;;;;;;;68.45;33.72;;;-10.20;54.80;;;;;;5071313;28;20020;-63
2021/01/20 05:00:19;;;;;;;66.55;33.53;;;-10.20;54.70;;;;;;5071156;28;20465;-63
2021/01/20 05:02:46;;;;;;;69.57;36.92;;;-10.20;54.70;;;;;;5073287;28;20514;-63
2021/01/20 05:05:13;;;;;;;60.95;28.00;;;-10.20;54.80;;;;;;5073422;28;20020;-63
2021/01/20 05:07:39;;;;;;;54.43;29.43;;;-10.20;54.70;;;;;;5073176;28;20049;-62
2021/01/20 05:10:05;;;;;;;64.72;32.95;;;-10.30;54.50;;;;;;5073329;28;20021;-63
2021/01/20 05:12:35;;;;;;;65.72;33.05;;;-10.30;54.50;;;;;;5073865;28;20095;-63
2021/01/20 05:15:03;;;;;;;69.88;34.38;;;-10.30;54.50;;;;;;5076063;28;20025;-62
2021/01/20 05:17:29;;;;;;;63.35;32.22;;;-10.30;54.50;;;;;;5077341;28;20017;-63
2021/01/20 05:19:55;;;;;;;57.20;30.95;;;-10.30;54.50;;;;;;5077248;28;20074;-62
2021/01/20 05:22:20;;;;;;;60.10;29.75;;;-10.40;54.40;;;;;;5076868;28;20009;-63
2021/01/20 05:25:03;;;;;;;63.25;30.98;;;-10.40;54.50;;;;;;5077216;28;20024;-63
2021/01/20 05:27:30;;;;;;;61.15;31.63;;;-10.40;54.50;;;;;;5075234;28;20031;-62
2021/01/20 05:30:06;;;;;;;64.18;32.22;;;-10.40;54.60;;;;;;5074647;28;20017;-62
2021/01/20 05:32:32;;;;;;;70.60;34.20;;;-10.40;54.70;;;;;;5075463;28;20043;-62
2021/01/20 05:35:07;;;;;;;68.47;35.35;;;-10.50;54.60;;;;;;5077076;28;20070;-62
2021/01/20 05:37:46;;;;;;;63.58;33.05;;;-10.40;54.70;;;;;;5075514;28;20028;-63
2021/01/20 05:40:18;;;;;;;61.53;33.58;;;-10.40;54.60;;;;;;5074179;28;20012;-62
2021/01/20 05:42:51;;;;;;;50.38;28.17;;;-10.40;54.50;;;;;;5077053;28;20027;-63
2021/01/20 05:45:26;;;;;;;56.35;31.85;;;-10.40;54.60;;;;;;5075847;28;20028;-62
2021/01/20 05:48:01;;;;;;;55.45;28.45;;;-10.40;54.60;;;;;;5075054;28;20020;-62
2021/01/20 05:50:27;;;;;;;57.83;31.47;;;-10.40;54.50;;;;;;5074325;28;20082;-62
2021/01/20 05:53:06;;;;;;;61.10;33.87;;;-10.40;54.50;;;;;;5076537;28;20414;-62
2021/01/20 05:55:32;;;;;;;65.07;31.23;;;-10.50;54.50;;;;;;5075068;28;20054;-62
2021/01/20 05:57:58;;;;;;;57.38;31.02;;;-10.50;54.70;;;;;;5076422;28;20098;-62
2021/01/20 06:00:24;;;;;;;58.47;33.33;;;-10.50;54.70;;;;;;5072200;28;20013;-63
2021/01/20 06:02:54;;;;;;;69.47;34.53;;;-10.50;54.60;;;;;;5075685;28;20046;-62
2021/01/20 06:05:21;;;;;;;58.40;33.03;;;-10.50;54.60;;;;;;5076445;28;20039;-62
2021/01/20 06:07:49;;;;;;;71.63;36.88;;;-10.50;54.50;;;;;;5071509;28;20622;-62
2021/01/20 06:10:15;;;;;;;67.40;33.72;;;-10.60;54.60;;;;;;5069395;28;20472;-62
2021/01/20 06:12:40;;;;;;;65.50;37.00;;;-10.50;54.70;;;;;;5075420;28;20028;-62
2021/01/20 06:15:06;;;;;;;50.22;27.73;;;-10.50;54.80;;;;;;5070428;28;20040;-62
2021/01/20 06:17:44;;;;;;;72.07;39.95;;;-10.50;54.70;;;;;;5073461;28;20463;-62
2021/01/20 06:20:11;;;;;;;68.40;37.13;;;-10.50;54.80;;;;;;5075687;28;20023;-62
2021/01/20 06:22:50;;;;;;;55.22;32.28;;;-10.40;54.80;;;;;;5069908;28;20070;-62
2021/01/20 06:25:27;;;;;;;75.32;41.38;;;-10.30;54.90;;;;;;5070321;28;20488;-62
2021/01/20 06:28:02;;;;;;;66.22;35.80;;;-10.30;54.80;;;;;;5074293;28;20111;-62
2021/01/20 06:30:38;;;;;;;56.25;32.08;;;-10.20;55.00;;;;;;5072355;28;20021;-62
2021/01/20 06:33:09;;;;;;;81.75;48.58;;;-10.10;54.90;;;;;;5074621;28;20028;-62
2021/01/20 06:35:45;;;;;;;66.82;39.28;;;-10.00;54.80;;;;;;5072816;28;20013;-62
2021/01/20 06:38:29;;;;;;;75.68;38.47;;;-10.00;54.90;;;;;;5070806;28;20028;-62
2021/01/20 06:41:03;;;;;;;47.05;28.52;;;-10.00;54.80;;;;;;5073255;28;20127;-62
2021/01/20 06:43:37;;;;;;;55.00;29.70;;;-10.00;54.60;;;;;;5071908;28;20104;-62
2021/01/20 06:46:09;;;;;;;58.72;29.75;;;-10.00;54.70;;;;;;5070008;28;20040;-62
2021/01/20 06:48:55;;;;;;;64.78;36.17;;;-9.90;54.70;;;;;;5074629;28;20024;-62
2021/01/20 06:51:22;;;;;;;80.93;40.28;;;-9.90;54.70;;;;;;5071565;28;20024;-62
2021/01/20 06:54:03;;;;;;;61.85;30.98;;;-9.80;54.80;;;;;;5074403;28;20032;-62
2021/01/20 06:56:49;;;;;;;69.43;36.72;;;-9.80;54.70;;;;;;5068468;28;20024;-61
2021/01/20 06:59:27;;;;;;;57.05;28.80;;;-9.70;54.70;;;;;;5065640;28;20032;-61
2021/01/20 07:02:02;;;;;;;69.40;36.35;;;-9.70;54.60;;;;;;5060914;28;20447;-62
2021/01/20 07:04:37;;;;;;;79.65;37.55;;;-9.60;54.60;;;;;;5054176;28;20021;-61
2021/01/20 07:07:11;;;;;;;74.85;38.42;;;-9.50;54.70;;;;;;5060067;28;20051;-61
2021/01/20 07:09:57;;;;;;;77.75;37.97;;;-9.50;54.70;;;;;;5056402;28;20457;-61
2021/01/20 07:12:24;;;;;;;76.30;35.22;;;-9.40;54.80;;;;;;5056179;28;20106;-61
2021/01/20 07:14:52;;;;;;;80.25;41.22;;;-9.30;54.70;;;;;;5055373;28;20032;-62
2021/01/20 07:17:18;;;;;;;62.28;35.17;;;-9.20;54.70;;;;;;5055482;28;20025;-62
2021/01/20 07:19:45;;;;;;;73.63;37.03;;;-9.10;54.60;;;;;;5061290;28;20471;-61
2021/01/20 07:22:12;;;;;;;83.15;40.17;;;-9.10;54.70;;;;;;5059088;28;20021;-61
2021/01/20 07:24:37;;;;;;;83.50;43.67;;;-9.10;54.60;;;;;;5054161;28;20036;-62
2021/01/20 07:27:07;;;;;;;79.38;44.15;;;-9.00;54.70;;;;;;5056081;28;20037;-62
2021/01/20 07:29:33;;;;;;;106.07;51.92;;;-8.90;54.60;;;;;;5056801;28;20028;-62
2021/01/20 07:32:01;;;;;;;67.88;35.58;;;-8.90;54.50;;;;;;5058627;28;20028;-62
2021/01/20 07:34:43;;;;;;;65.07;35.60;;;-8.80;54.50;;;;;;5060016;28;20037;-62
2021/01/20 07:37:17;;;;;;;61.45;35.55;;;-8.70;54.40;;;;;;5059083;28;20518;-62
2021/01/20 07:39:45;;;;;;;85.85;43.35;;;-8.70;54.20;;;;;;5057756;28;20025;-62
2021/01/20 07:42:11;;;;;;;62.15;37.60;;;-8.70;54.10;;;;;;5056516;28;20021;-62
2021/01/20 07:44:46;;;;;;;117.97;55.35;;;-8.70;54.10;;;;;;5062729;28;21068;-62
2021/01/20 07:47:11;;;;;;;95.22;47.78;;;-8.70;54.20;;;;;;5057838;28;20111;-62
2021/01/20 07:49:38;;;;;;;83.55;43.80;;;-8.70;54.30;;;;;;5055987;28;20116;-62
2021/01/20 07:52:06;;;;;;;109.45;54.70;;;-8.70;54.20;;;;;;5058423;28;20048;-61
2021/01/20 07:54:46;;;;;;;95.07;50.15;;;-8.70;54.70;;;;;;5055366;28;20025;-61
2021/01/20 07:57:16;;;;;;;96.22;46.67;;;-8.60;54.10;;;;;;5059291;28;20043;-61
2021/01/20 07:59:42;;;;;;;86.90;46.45;;;-8.60;54.10;;;;;;5057955;28;20029;-62
2021/01/20 08:02:17;;;;;;;89.13;46.42;;;-8.60;54.20;;;;;;5057209;28;20043;-61
2021/01/20 08:04:43;;;;;;;101.95;48.60;;;-8.50;54.20;;;;;;5052607;28;20040;-61
2021/01/20 08:07:12;;;;;;;88.35;42.65;;;-8.40;54.20;;;;;;5055831;28;20423;-61
2021/01/20 08:09:38;;;;;;;85.53;42.03;;;-8.40;54.20;;;;;;5052994;28;20028;-61
2021/01/20 08:12:09;;;;;;;81.60;39.35;;;-8.30;54.30;;;;;;5055452;28;20036;-61
2021/01/20 08:14:36;;;;;;;70.80;35.35;;;-8.20;54.20;;;;;;5056843;28;20039;-62
2021/01/20 08:17:06;;;;;;;69.70;33.33;;;-8.20;54.20;;;;;;5056210;28;20033;-61
2021/01/20 08:19:34;;;;;;;58.78;31.13;;;-8.10;54.10;;;;;;5053123;28;20025;-62
2021/01/20 08:22:06;;;;;;;62.60;33.40;;;-8.10;54.20;;;;;;5053843;28;20091;-61
2021/01/20 08:24:32;;;;;;;58.92;31.83;;;-8.00;54.30;;;;;;5056083;28;20028;-62
2021/01/20 08:26:59;;;;;;;67.95;34.50;;;-8.00;54.30;;;;;;5055324;28;20484;-62
2021/01/20 08:29:25;;;;;;;75.20;42.42;;;-7.90;54.20;;;;;;5051821;28;20032;-61
2021/01/20 08:32:11;;;;;;;79.30;41.65;;;-7.80;54.40;;;;;;5052821;28;20055;-62
2021/01/20 08:34:38;;;;;;;79.78;40.35;;;-7.70;54.50;;;;;;5056875;28;20024;-61
2021/01/20 08:37:08;;;;;;;82.78;41.67;;;-7.60;54.20;;;;;;5056507;28;20530;-61
2021/01/20 08:39:36;;;;;;;69.95;37.45;;;-7.50;54.10;;;;;;5056827;28;20021;-62
2021/01/20 08:42:34;;;;;;;74.45;39.28;;;-7.40;54.00;;;;;;5059715;28;20566;-62
2021/01/20 08:45:08;;;;;;;88.68;43.55;;;-7.40;53.90;;;;;;5046299;28;20071;-62
2021/01/20 08:47:44;;;;;;;112.68;54.05;;;-7.30;53.80;;;;;;5051303;28;20431;-61
2021/01/20 08:50:11;;;;;;;99.85;50.40;;;-7.20;53.90;;;;;;5049932;28;20028;-61
2021/01/20 08:52:45;;;;;;;92.22;44.10;;;-7.20;53.60;;;;;;5053671;28;20029;-62
2021/01/20 08:55:20;;;;;;;82.50;41.30;;;-7.10;53.60;;;;;;5049599;28;20040;-62
2021/01/20 08:57:46;;;;;;;70.63;36.33;;;-7.10;53.60;;;;;;5052957;28;20588;-62
2021/01/20 09:00:13;;;;;;;74.78;35.65;;;-7.00;53.50;;;;;;5052121;28;20021;-62
2021/01/20 09:02:38;;;;;;;85.55;42.10;;;-7.00;53.40;;;;;;5051514;28;20495;-61
2021/01/20 09:05:04;;;;;;;70.03;35.88;;;-6.90;53.40;;;;;;5053454;28;20037;-62
2021/01/20 09:07:30;;;;;;;86.35;45.10;;;-6.90;53.20;;;;;;5052869;28;20515;-62
2021/01/20 09:09:56;;;;;;;90.60;46.28;;;-6.80;53.20;;;;;;5049466;28;20066;-62
2021/01/20 09:12:22;;;;;;;87.93;47.28;;;-6.80;53.20;;;;;;5054013;28;20482;-62
2021/01/20 09:14:48;;;;;;;61.88;34.75;;;-6.80;53.20;;;;;;5048753;28;20380;-62
2021/01/20 09:17:15;;;;;;;57.75;33.47;;;-6.70;53.20;;;;;;5047315;28;20037;-62
2021/01/20 09:19:41;;;;;;;55.50;33.30;;;-6.60;53.20;;;;;;5049521;28;20037;-61
2021/01/20 09:22:06;;;;;;;67.68;36.92;;;-6.60;53.10;;;;;;5047670;28;20052;-61
2021/01/20 09:24:32;;;;;;;54.92;35.53;;;-6.60;53.00;;;;;;5049295;28;20033;-62
2021/01/20 09:26:58;;;;;;;84.75;51.38;;;-6.60;52.90;;;;;;5051571;28;20094;-62
2021/01/20 09:29:27;;;;;;;65.68;42.58;;;-6.50;53.00;;;;;;5046316;28;20060;-62
2021/01/20 09:31:55;;;;;;;93.95;53.13;;;-6.50;52.80;;;;;;5053507;28;20029;-62
2021/01/20 09:34:20;;;;;;;78.53;44.05;;;-6.50;52.50;;;;;;5051021;28;20032;-62
2021/01/20 09:36:46;;;;;;;83.85;48.35;;;-6.50;52.70;;;;;;5052599;28;20097;-62
2021/01/20 09:39:12;;;;;;;78.63;46.53;;;-6.50;52.80;;;;;;5053934;28;20032;-62
2021/01/20 09:41:38;;;;;;;77.40;45.75;;;-6.50;52.40;;;;;;5048614;28;20029;-62
2021/01/20 09:44:03;;;;;;;105.25;61.47;;;-6.50;52.30;;;;;;5044142;28;20445;-61
2021/01/20 09:46:29;;;;;;;86.43;48.35;;;-6.50;52.30;;;;;;5042577;28;20279;-61
2021/01/20 09:48:55;;;;;;;111.78;59.22;;;-6.40;52.40;;;;;;5048720;28;20038;-62
2021/01/20 09:51:21;;;;;;;104.70;55.25;;;-6.40;52.20;;;;;;5045606;28;20060;-62
2021/01/20 09:53:46;;;;;;;83.88;46.83;;;-6.40;52.20;;;;;;5045634;28;20036;-62
2021/01/20 09:56:12;;;;;;;106.90;52.38;;;-6.40;52.10;;;;;;5055096;28;20067;-62
2021/01/20 09:58:45;;;;;;;139.43;69.32;;;-6.40;52.50;;;;;;5053774;28;20021;-62
2021/01/20 10:01:11;;;;;;;147.25;68.20;;;-6.30;52.40;;;;;;5049027;28;20032;-62
2021/01/20 10:03:37;;;;;;;152.82;72.68;;;-6.30;52.50;;;;;;5054322;28;20025;-62
2021/01/20 10:06:03;;;;;;;121.63;61.08;;;-6.20;52.50;;;;;;5051363;28;20044;-64
2021/01/20 10:08:28;;;;;;;133.38;69.97;;;-6.20;52.40;;;;;;5056081;28;20028;-61
2021/01/20 10:10:54;;;;;;;138.63;68.55;;;-6.10;52.40;;;;;;5053914;28;20037;-60
2021/01/20 10:13:22;;;;;;;137.82;71.75;;;-6.00;52.40;;;;;;5056618;28;20033;-60
2021/01/20 10:15:48;;;;;;;95.65;51.85;;;-6.00;52.30;;;;;;5053980;28;20036;-61
2021/01/20 10:18:13;;;;;;;97.82;50.28;;;-5.90;52.20;;;;;;5053472;28;20699;-60
2021/01/20 10:20:39;;;;;;;96.50;51.08;;;-5.80;52.20;;;;;;5051469;28;20036;-61
2021/01/20 10:23:08;;;;;;;131.95;62.78;;;-5.80;52.00;;;;;;5052791;28;20025;-62
2021/01/20 10:25:34;;;;;;;118.97;56.13;;;-5.70;52.10;;;;;;5052254;28;20028;-61
2021/01/20 10:28:00;;;;;;;104.43;55.05;;;-5.70;51.90;;;;;;5052503;28;20049;-61
2021/01/20 10:30:27;;;;;;;128.95;61.67;;;-5.70;51.90;;;;;;5054103;28;20036;-61
2021/01/20 10:32:54;;;;;;;122.93;61.38;;;-5.70;51.90;;;;;;5052412;28;20143;-61
2021/01/20 10:35:20;;;;;;;118.05;58.33;;;-5.70;51.90;;;;;;5056607;28;20048;-61
2021/01/20 10:37:49;;;;;;;115.65;58.75;;;-5.70;52.10;;;;;;5054259;28;20032;-61
2021/01/20 10:40:15;;;;;;;104.78;56.85;;;-5.60;51.90;;;;;;5056028;28;20025;-61
2021/01/20 10:42:42;;;;;;;101.25;47.55;;;-5.60;51.80;;;;;;5054977;28;20028;-61
2021/01/20 10:45:08;;;;;;;100.68;53.15;;;-5.50;51.70;;;;;;5049124;28;20449;-61
2021/01/20 10:47:35;;;;;;;89.10;45.90;;;-5.50;51.80;;;;;;5054711;28;20035;-60
2021/01/20 10:50:02;;;;;;;123.50;58.33;;;-5.50;51.60;;;;;;5054182;28;20120;-60
2021/01/20 10:52:29;;;;;;;104.28;49.72;;;-5.40;51.70;;;;;;5055436;28;20025;-61
2021/01/20 10:54:56;;;;;;;110.97;50.20;;;-5.40;51.60;;;;;;5054265;28;20082;-60
2021/01/20 10:57:22;;;;;;;105.90;48.40;;;-5.30;51.60;;;;;;5051322;28;20037;-61
2021/01/20 10:59:48;;;;;;;88.03;44.03;;;-5.30;51.50;;;;;;5054045;28;20037;-60
2021/01/20 11:02:13;;;;;;;81.82;39.83;;;-5.30;51.50;;;;;;5054721;28;20050;-60
2021/01/20 11:04:39;;;;;;;91.72;43.25;;;-5.20;51.50;;;;;;5053741;28;20024;-60
2021/01/20 11:07:06;;;;;;;88.85;43.78;;;-5.20;51.50;;;;;;5054754;28;20053;-61
2021/01/20 11:09:32;;;;;;;80.68;39.60;;;-5.20;51.90;;;;;;5057756;28;20787;-60
2021/01/20 11:11:58;;;;;;;76.43;38.00;;;-5.10;51.20;;;;;;5054483;28;20119;-60
2021/01/20 11:14:29;;;;;;;59.08;32.55;;;-5.10;51.00;;;;;;5052251;28;20052;-60
2021/01/20 11:16:56;;;;;;;59.40;29.98;;;-5.10;51.10;;;;;;5046749;28;20059;-60
2021/01/20 11:19:21;;;;;;;62.42;31.05;;;-5.10;51.00;;;;;;5052397;28;20857;-60
2021/01/20 11:21:49;;;;;;;61.10;30.27;;;-5.10;50.70;;;;;;5059237;28;20037;-60
2021/01/20 11:24:18;;;;;;;58.90;29.33;;;-5.10;50.70;;;;;;5054502;28;20028;-60
2021/01/20 11:26:46;;;;;;;52.78;27.25;;;-5.10;50.50;;;;;;5055568;28;20028;-60
2021/01/20 11:29:13;;;;;;;64.63;31.88;;;-5.10;50.60;;;;;;5057477;28;20057;-60
2021/01/20 11:31:39;;;;;;;49.00;27.08;;;-5.10;50.80;;;;;;5060362;28;20093;-60
2021/01/20 11:34:05;;;;;;;54.97;27.80;;;-5.10;51.20;;;;;;5058964;28;20032;-61
2021/01/20 11:36:31;;;;;;;73.28;35.28;;;-5.10;50.80;;;;;;5055207;28;20112;-61
2021/01/20 11:38:57;;;;;;;48.92;26.20;;;-5.00;50.80;;;;;;5054966;28;20029;-60
2021/01/20 11:41:22;;;;;;;49.47;26.08;;;-5.00;51.00;;;;;;5054280;28;20031;-61
2021/01/20 11:43:48;;;;;;;68.35;32.72;;;-5.00;50.80;;;;;;5057402;28;20745;-59
2021/01/20 11:46:14;;;;;;;48.08;25.48;;;-5.00;50.70;;;;;;5055973;28;20075;-60
2021/01/20 11:48:40;;;;;;;62.72;28.33;;;-5.00;50.80;;;;;;5058094;28;20037;-61
2021/01/20 11:51:06;;;;;;;43.47;20.52;;;-4.90;50.60;;;;;;5058941;28;20068;-61
2021/01/20 11:53:32;;;;;;;36.45;19.40;;;-4.90;50.20;;;;;;5057925;28;20107;-60
2021/01/20 11:55:58;;;;;;;44.92;22.95;;;-5.00;50.10;;;;;;5056776;28;20966;-60
2021/01/20 11:58:23;;;;;;;45.05;24.02;;;-5.00;50.10;;;;;;5052200;28;20539;-60
2021/01/20 12:00:49;;;;;;;40.72;22.52;;;-5.00;50.20;;;;;;5057423;28;20033;-61
2021/01/20 12:03:15;;;;;;;36.17;20.27;;;-5.00;50.10;;;;;;5052235;28;20021;-60
2021/01/20 12:05:41;;;;;;;34.80;18.73;;;-5.00;50.20;;;;;;5052418;28;20097;-60
2021/01/20 12:08:07;;;;;;;25.63;15.18;;;-5.00;50.20;;;;;;5053989;28;20028;-60
2021/01/20 12:10:33;;;;;;;32.53;16.45;;;-4.90;49.90;;;;;;5053491;28;20028;-61
2021/01/20 12:12:58;;;;;;;30.67;16.25;;;-4.90;49.80;;;;;;5051928;28;20033;-61
2021/01/20 12:15:24;;;;;;;27.48;15.00;;;-5.00;49.60;;;;;;5054963;28;20465;-61
2021/01/20 12:17:50;;;;;;;24.40;14.57;;;-5.00;49.60;;;;;;5051835;28;20029;-61
2021/01/20 12:20:16;;;;;;;31.73;16.02;;;-5.00;49.90;;;;;;5046934;28;20081;-61
2021/01/20 12:22:41;;;;;;;36.17;20.33;;;-5.10;50.20;;;;;;5055765;28;20104;-61
2021/01/20 12:25:08;;;;;;;38.38;18.98;;;-5.20;50.50;;;;;;5052273;28;20462;-61
2021/01/20 12:27:37;;;;;;;30.27;16.23;;;-5.20;50.80;;;;;;5048705;28;20036;-62